createdAt,value
2022-12-04T00:00:32.331Z,575.40
2022-12-04T00:01:39.283Z,577.61
2022-12-04T00:02:42.993Z,568.78
2022-12-04T00:03:49.753Z,565.04
2022-12-04T00:04:53.374Z,558.19
2022-12-04T00:06:07.494Z,552.43
2022-12-04T00:07:11.952Z,554.26
2022-12-04T00:08:18.178Z,549.46
2022-12-04T00:09:21.662Z,546.33
2022-12-04T00:10:27.798Z,544.53
2022-12-04T00:11:33.829Z,533.00
2022-12-04T00:12:50.036Z,526.44
2022-12-04T00:14:01.605Z,527.10
2022-12-04T00:15:25.284Z,523.00
2022-12-04T00:16:30.835Z,518.95
2022-12-04T00:17:36.887Z,507.49
2022-12-04T00:18:41.620Z,517.91
2022-12-04T00:19:47.724Z,503.31
2022-12-04T00:20:51.305Z,503.13
2022-12-04T00:21:57.314Z,495.14
2022-12-04T00:23:00.803Z,486.10
2022-12-04T00:24:09.312Z,490.27
2022-12-04T00:25:12.857Z,478.07
2022-12-04T00:26:23.010Z,476.79
2022-12-04T00:27:26.488Z,479.66
2022-12-04T00:28:32.707Z,478.75
2022-12-04T00:29:42.228Z,476.59
2022-12-04T00:30:46.752Z,469.83
2022-12-04T00:31:52.992Z,467.94
2022-12-04T00:32:56.537Z,452.70
2022-12-04T00:34:07.959Z,461.21
2022-12-04T00:35:12.770Z,446.72
2022-12-04T00:36:24.311Z,448.79
2022-12-04T00:37:28.482Z,461.15
2022-12-04T00:38:34.652Z,460.03
2022-12-04T00:39:38.111Z,448.17
2022-12-04T00:40:53.276Z,460.20
2022-12-04T00:41:56.766Z,458.69
2022-12-04T00:43:02.796Z,474.81
2022-12-04T00:44:08.763Z,459.64
2022-12-04T00:45:15.250Z,460.50
2022-12-04T00:46:23.175Z,450.49
2022-12-04T00:47:26.784Z,450.52
2022-12-04T00:48:33.318Z,449.13
2022-12-04T00:49:36.988Z,466.94
2022-12-04T00:50:43.202Z,463.98
2022-12-04T00:52:04.154Z,448.26
2022-12-04T00:53:09.434Z,464.95
2022-12-04T00:54:16.402Z,450.24
2022-12-04T00:55:19.891Z,458.27
2022-12-04T00:56:31.108Z,465.65
2022-12-04T00:57:34.858Z,481.46
2022-12-04T00:58:45.104Z,469.33
2022-12-04T00:59:48.723Z,459.34
2022-12-04T01:01:07.634Z,466.43
2022-12-04T01:02:13.925Z,479.76
2022-12-04T01:03:17.628Z,465.14
2022-12-04T01:04:25.749Z,460.84
2022-12-04T01:05:29.190Z,465.33
2022-12-04T01:06:37.893Z,477.85
2022-12-04T01:07:41.447Z,471.80
2022-12-04T01:08:47.626Z,477.24
2022-12-04T01:09:54.929Z,466.62
2022-12-04T01:10:58.938Z,471.76
2022-12-04T01:12:04.988Z,466.15
2022-12-04T01:13:08.493Z,475.40
2022-12-04T01:14:15.000Z,465.38
2022-12-04T01:15:19.765Z,480.94
2022-12-04T01:16:33.270Z,487.83
2022-12-04T01:17:37.482Z,478.75
2022-12-04T01:18:43.626Z,464.57
2022-12-04T01:19:47.188Z,474.44
2022-12-04T01:20:56.241Z,469.26
2022-12-04T01:22:00.040Z,468.88
2022-12-04T01:23:06.819Z,471.05
2022-12-04T01:24:10.569Z,472.78
2022-12-04T01:25:17.082Z,493.80
2022-12-04T01:26:23.988Z,475.83
2022-12-04T01:27:30.505Z,492.48
2022-12-04T01:28:34.584Z,486.79
2022-12-04T01:29:42.160Z,490.81
2022-12-04T01:30:45.852Z,498.56
2022-12-04T01:31:55.480Z,480.80
2022-12-04T01:32:59.070Z,487.92
2022-12-04T01:34:09.788Z,478.60
2022-12-04T01:35:14.982Z,477.49
2022-12-04T01:36:25.658Z,483.19
2022-12-04T01:37:32.635Z,461.67
2022-12-04T01:38:39.959Z,466.00
2022-12-04T01:39:43.672Z,491.25
2022-12-04T01:40:49.883Z,479.24
2022-12-04T01:41:53.420Z,464.65
2022-12-04T01:43:02.333Z,471.39
2022-12-04T01:44:22.714Z,478.63
2022-12-04T01:45:45.088Z,478.48
2022-12-04T01:46:57.892Z,475.29
2022-12-04T01:48:16.068Z,463.51
2022-12-04T01:49:28.956Z,483.25
2022-12-04T01:50:32.905Z,467.07
2022-12-04T01:51:45.373Z,471.07
2022-12-04T01:52:49.074Z,489.33
2022-12-04T01:54:02.559Z,485.43
2022-12-04T01:55:09.805Z,487.65
2022-12-04T01:56:19.717Z,490.47
2022-12-04T01:57:28.690Z,515.46
2022-12-04T01:58:42.624Z,502.20
2022-12-04T01:59:55.729Z,471.05
2022-12-04T02:01:09.570Z,485.56
2022-12-04T02:02:23.194Z,484.24
2022-12-04T02:03:30.433Z,482.18
2022-12-04T02:04:35.958Z,470.87
2022-12-04T02:05:42.794Z,489.19
2022-12-04T02:06:46.551Z,485.89
2022-12-04T02:07:59.188Z,495.79
2022-12-04T02:09:05.688Z,490.93
2022-12-04T02:10:14.605Z,519.50
2022-12-04T02:11:38.603Z,536.00
2022-12-04T02:13:02.044Z,542.77
2022-12-04T02:14:26.385Z,541.54
2022-12-04T02:15:46.289Z,547.24
2022-12-04T02:17:08.662Z,575.48
2022-12-04T02:18:30.589Z,541.01
2022-12-04T02:20:12.215Z,536.80
2022-12-04T02:21:30.650Z,547.49
2022-12-04T02:23:18.586Z,530.52
2022-12-04T02:24:51.054Z,541.41
2022-12-04T02:26:17.157Z,547.60
2022-12-04T02:28:02.611Z,544.15
2022-12-04T02:29:15.991Z,566.48
2022-12-04T02:30:22.780Z,560.45
2022-12-04T02:31:35.205Z,560.82
2022-12-04T02:33:04.323Z,546.92
2022-12-04T02:34:18.800Z,558.77
2022-12-04T02:35:34.160Z,556.93
2022-12-04T02:36:53.912Z,563.69
2022-12-04T02:38:13.835Z,548.43
2022-12-04T02:39:25.863Z,530.08
2022-12-04T02:40:46.958Z,537.58
2022-12-04T02:42:00.287Z,526.21
2022-12-04T02:43:19.881Z,531.54
2022-12-04T02:44:30.938Z,527.20
2022-12-04T02:45:47.840Z,505.40
2022-12-04T02:47:02.369Z,503.51
2022-12-04T02:48:12.101Z,477.05
2022-12-04T02:49:25.754Z,464.90
2022-12-04T02:50:39.700Z,469.40
2022-12-04T02:51:50.234Z,455.44
2022-12-04T02:53:06.003Z,452.94
2022-12-04T02:54:24.584Z,434.11
2022-12-04T02:55:38.867Z,433.87
2022-12-04T02:56:50.863Z,425.86
2022-12-04T02:58:08.623Z,426.90
2022-12-04T02:59:23.511Z,429.14
2022-12-04T03:00:34.694Z,424.31
2022-12-04T03:01:49.201Z,410.78
2022-12-04T03:03:04.786Z,413.38
2022-12-04T03:04:20.405Z,396.34
2022-12-04T03:05:41.843Z,412.04
2022-12-04T03:06:54.674Z,408.47
2022-12-04T03:08:08.479Z,409.94
2022-12-04T03:09:21.445Z,412.16
2022-12-04T03:10:37.036Z,395.18
2022-12-04T03:11:54.777Z,404.45
2022-12-04T03:13:10.920Z,403.25
2022-12-04T03:14:25.034Z,410.88
2022-12-04T03:15:40.977Z,402.65
2022-12-04T03:16:54.396Z,401.97
2022-12-04T03:18:06.438Z,391.20
2022-12-04T03:19:19.653Z,389.36
2022-12-04T03:20:26.270Z,403.24
2022-12-04T03:21:40.986Z,396.37
2022-12-04T03:22:55.633Z,399.79
2022-12-04T03:24:16.015Z,400.12
2022-12-04T03:25:20.078Z,384.31
2022-12-04T03:26:36.555Z,385.35
2022-12-04T03:28:00.921Z,385.39
2022-12-04T03:29:21.663Z,385.84
2022-12-04T03:30:25.292Z,385.39
2022-12-04T03:31:45.849Z,394.43
2022-12-04T03:32:57.169Z,374.29
2022-12-04T03:34:10.953Z,384.05
2022-12-04T03:35:22.807Z,396.71
2022-12-04T03:36:39.589Z,393.78
2022-12-04T03:37:55.710Z,399.76
2022-12-04T03:39:15.932Z,403.56
2022-12-04T03:40:29.903Z,389.70
2022-12-04T03:42:01.967Z,400.93
2022-12-04T03:43:17.391Z,390.06
2022-12-04T03:44:38.816Z,400.90
2022-12-04T03:45:52.684Z,402.94
2022-12-04T03:47:09.463Z,398.88
2022-12-04T03:48:27.384Z,387.61
2022-12-04T03:49:44.202Z,396.61
2022-12-04T03:51:01.317Z,389.34
2022-12-04T03:52:15.793Z,388.63
2022-12-04T03:53:33.866Z,391.94
2022-12-04T03:54:48.895Z,384.33
2022-12-04T03:56:05.349Z,377.14
2022-12-04T03:57:19.363Z,387.35
2022-12-04T03:58:33.352Z,381.93
2022-12-04T03:59:55.297Z,380.15
2022-12-04T04:01:11.058Z,404.18
2022-12-04T04:02:23.083Z,403.10
2022-12-04T04:03:37.273Z,383.96
2022-12-04T04:04:48.497Z,390.91
2022-12-04T04:06:03.609Z,399.00
2022-12-04T04:07:20.611Z,408.86
2022-12-04T04:08:37.886Z,385.10
2022-12-04T04:09:50.325Z,376.29
2022-12-04T04:11:05.178Z,381.98
2022-12-04T04:12:17.047Z,379.86
2022-12-04T04:13:44.323Z,371.58
2022-12-04T04:15:14.426Z,356.29
2022-12-04T04:16:42.422Z,358.01
2022-12-04T04:18:06.259Z,351.71
2022-12-04T04:19:31.847Z,356.03
2022-12-04T04:20:58.833Z,344.54
2022-12-04T04:22:25.318Z,359.16
2022-12-04T04:24:04.840Z,353.99
2022-12-04T04:25:19.651Z,350.07
2022-12-04T04:26:27.326Z,344.68
2022-12-04T04:27:33.495Z,353.27
2022-12-04T04:28:40.675Z,348.42
2022-12-04T04:29:52.607Z,347.45
2022-12-04T04:31:13.246Z,356.10
2022-12-04T04:32:38.150Z,357.71
2022-12-04T04:33:59.918Z,356.81
2022-12-04T04:35:22.198Z,358.39
2022-12-04T04:36:45.163Z,354.45
2022-12-04T04:38:04.749Z,364.42
2022-12-04T04:39:25.825Z,369.93
2022-12-04T04:40:44.494Z,348.47
2022-12-04T04:41:57.027Z,358.84
2022-12-04T04:43:14.411Z,362.96
2022-12-04T04:44:39.847Z,342.80
2022-12-04T04:45:54.774Z,342.91
2022-12-04T04:47:09.015Z,336.60
2022-12-04T04:48:24.735Z,342.06
2022-12-04T04:49:38.655Z,342.55
2022-12-04T04:50:48.050Z,342.45
2022-12-04T04:51:53.175Z,353.82
2022-12-04T04:53:08.625Z,357.68
2022-12-04T04:54:18.364Z,359.67
2022-12-04T04:55:27.277Z,365.56
2022-12-04T04:56:31.984Z,350.04
2022-12-04T04:57:39.798Z,348.28
2022-12-04T04:58:44.233Z,352.34
2022-12-04T04:59:50.338Z,369.67
2022-12-04T05:01:05.757Z,352.29
2022-12-04T05:02:15.648Z,358.83
2022-12-04T05:03:19.169Z,367.43
2022-12-04T05:04:25.721Z,354.37
2022-12-04T05:05:29.496Z,357.90
2022-12-04T05:06:36.590Z,355.82
2022-12-04T05:07:40.063Z,358.97
2022-12-04T05:08:49.430Z,349.82
2022-12-04T05:09:52.975Z,359.28
2022-12-04T05:10:59.474Z,365.79
2022-12-04T05:12:03.875Z,342.88
2022-12-04T05:13:14.648Z,359.30
2022-12-04T05:14:18.164Z,353.79
2022-12-04T05:15:24.267Z,355.02
2022-12-04T05:16:27.776Z,362.11
2022-12-04T05:17:41.166Z,343.19
2022-12-04T05:19:06.035Z,350.77
2022-12-04T05:20:12.014Z,350.16
2022-12-04T05:21:19.186Z,368.07
2022-12-04T05:22:27.927Z,355.11
2022-12-04T05:23:49.079Z,344.23
2022-12-04T05:24:54.449Z,344.26
2022-12-04T05:26:03.778Z,345.93
2022-12-04T05:27:07.219Z,333.91
2022-12-04T05:28:13.424Z,343.92
2022-12-04T05:29:16.865Z,342.33
2022-12-04T05:30:30.283Z,341.86
2022-12-04T05:31:33.941Z,337.43
2022-12-04T05:32:43.500Z,343.32
2022-12-04T05:33:47.042Z,338.64
2022-12-04T05:34:54.448Z,338.19
2022-12-04T05:36:00.332Z,337.05
2022-12-04T05:37:06.683Z,327.83
2022-12-04T05:38:10.079Z,342.80
2022-12-04T05:39:17.172Z,335.54
2022-12-04T05:40:21.171Z,334.14
2022-12-04T05:41:28.165Z,328.98
2022-12-04T05:42:31.847Z,340.67
2022-12-04T05:43:39.128Z,332.97
2022-12-04T05:44:42.684Z,323.38
2022-12-04T05:45:49.304Z,329.50
2022-12-04T05:46:53.815Z,327.95
2022-12-04T05:48:02.697Z,332.51
2022-12-04T05:49:06.469Z,336.46
2022-12-04T05:50:16.248Z,321.48
2022-12-04T05:51:19.710Z,325.88
2022-12-04T05:52:27.784Z,327.34
2022-12-04T05:53:31.265Z,320.24
2022-12-04T05:54:37.525Z,335.33
2022-12-04T05:55:41.271Z,326.38
2022-12-04T05:56:47.467Z,335.07
2022-12-04T05:57:51.813Z,331.42
2022-12-04T05:58:58.065Z,320.23
2022-12-04T06:00:01.619Z,323.18
2022-12-04T06:01:15.123Z,332.71
2022-12-04T06:02:19.640Z,337.52
2022-12-04T06:03:29.261Z,346.10
2022-12-04T06:04:33.009Z,331.47
2022-12-04T06:05:39.156Z,331.82
2022-12-04T06:06:44.056Z,341.42
2022-12-04T06:07:50.275Z,341.99
2022-12-04T06:08:58.780Z,344.75
2022-12-04T06:10:05.071Z,349.28
2022-12-04T06:11:13.788Z,333.87
2022-12-04T06:12:19.954Z,325.13
2022-12-04T06:13:23.523Z,329.46
2022-12-04T06:14:37.814Z,333.69
2022-12-04T06:15:43.229Z,336.64
2022-12-04T06:16:50.812Z,320.44
2022-12-04T06:17:56.342Z,320.55
2022-12-04T06:19:13.858Z,346.04
2022-12-04T06:20:18.820Z,317.53
2022-12-04T06:21:28.819Z,324.69
2022-12-04T06:22:32.572Z,332.80
2022-12-04T06:23:38.955Z,328.35
2022-12-04T06:24:42.758Z,328.97
2022-12-04T06:27:27.312Z,321.42
2022-12-04T06:28:31.732Z,324.93
2022-12-04T06:29:38.197Z,339.22
2022-12-04T06:30:41.783Z,336.02
2022-12-04T06:31:48.944Z,359.38
2022-12-04T06:32:52.976Z,326.89
2022-12-04T06:34:01.407Z,326.01
2022-12-04T06:35:08.749Z,327.89
2022-12-04T06:36:19.710Z,326.70
2022-12-04T06:37:25.971Z,332.80
2022-12-04T06:38:32.315Z,330.64
2022-12-04T06:39:36.524Z,320.50
2022-12-04T06:40:43.583Z,326.13
2022-12-04T06:41:47.869Z,311.38
2022-12-04T06:42:54.986Z,303.72
2022-12-04T06:43:59.098Z,311.26
2022-12-04T06:45:05.557Z,311.50
2022-12-04T06:46:12.864Z,336.56
2022-12-04T06:47:19.013Z,355.68
2022-12-04T06:48:23.476Z,336.32
2022-12-04T06:49:29.657Z,346.96
2022-12-04T06:50:35.824Z,330.86
2022-12-04T06:51:42.567Z,325.88
2022-12-04T06:52:46.114Z,350.41
2022-12-04T06:53:53.648Z,347.47
2022-12-04T06:54:57.251Z,337.32
2022-12-04T06:56:07.145Z,328.52
2022-12-04T06:57:13.655Z,337.25
2022-12-04T06:58:23.638Z,320.17
2022-12-04T06:59:28.227Z,341.27
2022-12-04T07:00:34.441Z,333.83
2022-12-04T07:01:38.099Z,320.96
2022-12-04T07:02:46.876Z,328.71
2022-12-04T07:03:51.994Z,342.84
2022-12-04T07:05:03.120Z,330.75
2022-12-04T07:06:21.987Z,372.00
2022-12-04T07:07:27.984Z,391.67
2022-12-04T07:08:38.988Z,366.43
2022-12-04T07:09:43.077Z,369.50
2022-12-04T07:10:58.911Z,346.67
2022-12-04T07:12:07.993Z,350.09
2022-12-04T07:13:14.901Z,347.69
2022-12-04T07:14:20.933Z,358.24
2022-12-04T07:15:30.643Z,339.44
2022-12-04T07:16:40.723Z,346.63
2022-12-04T07:17:50.438Z,334.30
2022-12-04T07:18:56.854Z,322.42
2022-12-04T07:20:03.134Z,334.64
2022-12-04T07:21:08.749Z,336.84
2022-12-04T07:22:18.988Z,314.26
2022-12-04T07:23:22.973Z,325.46
2022-12-04T07:24:29.173Z,321.94
2022-12-04T07:25:33.024Z,310.34
2022-12-04T07:26:39.410Z,311.72
2022-12-04T07:27:44.052Z,319.38
2022-12-04T07:28:51.938Z,310.04
2022-12-04T07:30:00.330Z,309.42
2022-12-04T07:31:06.907Z,298.83
2022-12-04T07:32:20.633Z,294.86
2022-12-04T07:33:25.362Z,305.65
2022-12-04T07:34:33.065Z,305.28
2022-12-04T07:35:40.434Z,309.23
2022-12-04T07:36:54.404Z,334.13
2022-12-04T07:38:00.578Z,330.76
2022-12-04T07:39:07.656Z,321.27
2022-12-04T07:40:13.699Z,324.69
2022-12-04T07:41:25.870Z,321.78
2022-12-04T07:42:30.024Z,321.91
2022-12-04T07:43:38.828Z,317.95
2022-12-04T07:44:43.546Z,341.21
2022-12-04T07:45:49.742Z,336.72
2022-12-04T07:46:54.001Z,335.34
2022-12-04T07:48:00.252Z,357.07
2022-12-04T07:49:03.743Z,368.39
2022-12-04T07:50:11.937Z,376.44
2022-12-04T07:51:20.162Z,398.69
2022-12-04T07:52:27.958Z,422.88
2022-12-04T07:53:42.591Z,436.11
2022-12-04T07:54:50.141Z,456.53
2022-12-04T07:55:55.419Z,447.80
2022-12-04T07:57:01.824Z,431.74
2022-12-04T07:58:05.770Z,412.88
2022-12-04T07:59:12.064Z,399.33
2022-12-04T08:00:19.799Z,420.27
2022-12-04T08:01:28.277Z,414.77
2022-12-04T08:02:33.229Z,399.23
2022-12-04T08:03:45.243Z,403.10
2022-12-04T08:04:51.079Z,406.55
2022-12-04T08:06:02.196Z,402.91
2022-12-04T08:07:09.179Z,401.60
2022-12-04T08:08:12.761Z,412.03
2022-12-04T08:09:21.487Z,392.57
2022-12-04T08:10:29.239Z,370.74
2022-12-04T08:11:40.368Z,364.18
2022-12-04T08:12:44.732Z,393.92
2022-12-04T08:13:57.768Z,400.93
2022-12-04T08:15:13.213Z,402.65
2022-12-04T08:16:17.348Z,433.53
2022-12-04T08:17:25.463Z,433.87
2022-12-04T08:18:30.318Z,447.38
2022-12-04T08:19:38.093Z,455.03
2022-12-04T08:20:41.793Z,431.74
2022-12-04T08:21:48.222Z,412.14
2022-12-04T08:22:51.806Z,409.57
2022-12-04T08:24:01.425Z,396.46
2022-12-04T08:25:11.279Z,393.33
2022-12-04T08:26:18.560Z,361.61
2022-12-04T08:27:24.755Z,361.87
2022-12-04T08:28:32.290Z,352.68
2022-12-04T08:29:39.833Z,373.70
2022-12-04T08:30:44.990Z,349.48
2022-12-04T08:31:52.080Z,328.32
2022-12-04T08:32:56.043Z,324.05
2022-12-04T08:34:09.347Z,315.95
2022-12-04T08:35:16.647Z,315.10
2022-12-04T08:36:25.030Z,306.90
2022-12-04T08:37:30.718Z,310.06
2022-12-04T08:38:37.558Z,335.48
2022-12-04T08:39:44.450Z,305.38
2022-12-04T08:40:51.919Z,302.42
2022-12-04T08:41:58.393Z,294.37
2022-12-04T08:43:02.212Z,304.32
2022-12-04T08:44:08.573Z,336.53
2022-12-04T08:45:13.559Z,316.60
2022-12-04T08:46:22.783Z,301.49
2022-12-04T08:47:30.330Z,297.89
2022-12-04T08:48:35.726Z,320.91
2022-12-04T08:49:43.153Z,306.35
2022-12-04T08:50:46.797Z,333.01
2022-12-04T08:51:53.854Z,321.07
2022-12-04T08:52:58.377Z,321.74
2022-12-04T08:54:08.997Z,337.83
2022-12-04T08:55:12.650Z,320.99
2022-12-04T08:56:21.477Z,324.88
2022-12-04T08:57:27.297Z,319.25
2022-12-04T08:58:35.781Z,317.22
2022-12-04T08:59:39.277Z,308.23
2022-12-04T09:00:45.539Z,290.40
2022-12-04T09:01:52.636Z,275.45
2022-12-04T09:02:59.689Z,281.54
2022-12-04T09:04:06.042Z,272.72
2022-12-04T09:05:09.915Z,276.89
2022-12-04T09:06:26.157Z,291.52
2022-12-04T09:07:30.166Z,302.97
2022-12-04T09:08:38.795Z,317.97
2022-12-04T09:09:54.712Z,318.74
2022-12-04T09:11:08.587Z,307.13
2022-12-04T09:12:18.148Z,308.37
2022-12-04T09:13:21.774Z,302.12
2022-12-04T09:14:29.919Z,295.91
2022-12-04T09:15:34.165Z,317.94
2022-12-04T09:16:40.339Z,339.04
2022-12-04T09:17:44.651Z,311.72
2022-12-04T09:18:52.360Z,314.37
2022-12-04T09:20:00.965Z,330.30
2022-12-04T09:21:11.747Z,327.94
2022-12-04T09:22:18.150Z,313.17
2022-12-04T09:23:22.883Z,311.59
2022-12-04T09:24:29.377Z,269.83
2022-12-04T09:25:37.137Z,265.12
2022-12-04T09:26:43.585Z,269.55
2022-12-04T09:27:49.925Z,278.18
2022-12-04T09:28:59.040Z,285.96
2022-12-04T09:30:05.526Z,293.44
2022-12-04T09:31:10.453Z,285.20
2022-12-04T09:32:17.111Z,280.70
2022-12-04T09:33:22.085Z,288.90
2022-12-04T09:34:29.088Z,289.42
2022-12-04T09:35:36.156Z,291.99
2022-12-04T09:36:44.128Z,296.38
2022-12-04T09:37:48.539Z,296.00
2022-12-04T09:38:57.697Z,302.20
2022-12-04T09:40:04.483Z,305.56
2022-12-04T09:42:01.117Z,309.83
2022-12-04T09:43:32.240Z,305.78
2022-12-04T09:44:48.927Z,305.41
2022-12-04T09:46:03.238Z,297.12
2022-12-04T09:47:28.438Z,292.70
2022-12-04T09:48:40.167Z,314.18
2022-12-04T09:49:56.731Z,305.18
2022-12-04T09:51:17.540Z,297.41
2022-12-04T09:52:47.649Z,309.41
2022-12-04T09:54:08.351Z,295.12
2022-12-04T09:55:24.971Z,321.17
2022-12-04T09:56:32.764Z,349.01
2022-12-04T09:57:47.340Z,336.82
2022-12-04T09:59:13.287Z,336.01
2022-12-04T10:00:24.065Z,308.14
2022-12-04T10:01:46.641Z,308.26
2022-12-04T10:03:00.669Z,296.63
2022-12-04T10:04:06.833Z,329.76
2022-12-04T10:05:23.755Z,333.32
2022-12-04T10:06:43.955Z,339.49
2022-12-04T10:08:12.679Z,331.16
2022-12-04T10:09:31.473Z,335.19
2022-12-04T10:10:48.217Z,353.96
2022-12-04T10:12:10.419Z,414.20
2022-12-04T10:14:18.181Z,332.10
2022-12-04T10:15:36.132Z,384.83
2022-12-04T10:17:14.320Z,394.21
2022-12-04T10:18:41.390Z,334.39
2022-12-04T10:20:05.734Z,354.23
2022-12-04T10:21:38.699Z,450.60
2022-12-04T10:23:12.295Z,453.74
2022-12-04T10:24:43.384Z,538.96
2022-12-04T10:25:55.115Z,565.39
2022-12-04T10:27:14.759Z,454.31
2022-12-04T10:28:35.082Z,482.47
2022-12-04T10:29:52.379Z,469.04
2022-12-04T10:31:05.952Z,436.63
2022-12-04T10:32:25.144Z,415.83
2022-12-04T10:33:41.869Z,416.98
2022-12-04T10:34:51.437Z,420.59
2022-12-04T10:35:56.516Z,383.49
2022-12-04T10:37:17.008Z,415.40
2022-12-04T10:38:41.179Z,358.48
2022-12-04T10:39:58.378Z,338.60
2022-12-04T10:41:15.755Z,344.86
2022-12-04T10:42:39.749Z,373.23
2022-12-04T10:43:53.167Z,395.80
2022-12-04T10:45:05.556Z,378.53
2022-12-04T10:46:19.338Z,369.94
2022-12-04T10:47:29.385Z,368.05
2022-12-04T10:48:43.566Z,373.65
2022-12-04T10:50:05.499Z,312.53
2022-12-04T10:51:19.106Z,351.58
2022-12-04T10:52:26.550Z,333.47
2022-12-04T10:53:39.130Z,341.09
2022-12-04T10:54:55.919Z,395.52
2022-12-04T10:56:18.524Z,523.75
2022-12-04T10:57:23.725Z,523.85
2022-12-04T10:58:33.697Z,490.60
2022-12-04T10:59:56.105Z,506.82
2022-12-04T11:01:11.488Z,488.45
2022-12-04T11:02:27.687Z,448.50
2022-12-04T11:03:32.846Z,376.96
2022-12-04T11:04:40.338Z,347.39
2022-12-04T11:05:58.024Z,373.84
2022-12-04T11:07:11.508Z,348.76
2022-12-04T11:08:29.214Z,329.50
2022-12-04T11:09:44.981Z,310.37
2022-12-04T11:11:04.576Z,392.22
2022-12-04T11:12:25.965Z,376.11
2022-12-04T11:13:35.145Z,339.60
2022-12-04T11:14:46.797Z,312.31
2022-12-04T11:15:56.255Z,316.97
2022-12-04T11:17:09.895Z,332.02
2022-12-04T11:18:25.123Z,337.96
2022-12-04T11:19:38.260Z,331.36
2022-12-04T11:20:51.588Z,360.12
2022-12-04T11:22:07.281Z,326.38
2022-12-04T11:23:20.700Z,346.70
2022-12-04T11:24:37.727Z,344.81
2022-12-04T11:25:51.764Z,363.77
2022-12-04T11:26:58.863Z,385.28
2022-12-04T11:28:41.321Z,390.83
2022-12-04T11:29:53.109Z,385.47
2022-12-04T11:31:06.094Z,492.02
2022-12-04T11:32:28.522Z,453.77
2022-12-04T11:33:48.049Z,416.95
2022-12-04T11:35:06.976Z,454.84
2022-12-04T11:36:27.267Z,492.84
2022-12-04T11:37:45.164Z,473.41
2022-12-04T11:39:05.843Z,598.72
2022-12-04T11:40:23.653Z,555.94
2022-12-04T11:41:32.428Z,543.73
2022-12-04T11:42:40.049Z,473.07
2022-12-04T11:43:58.208Z,525.40
2022-12-04T11:45:25.842Z,540.47
2022-12-04T11:46:40.917Z,482.28
2022-12-04T11:47:58.408Z,539.18
2022-12-04T11:49:06.936Z,441.53
2022-12-04T11:50:34.030Z,424.16
2022-12-04T11:52:08.025Z,402.08
2022-12-04T11:53:26.709Z,436.61
2022-12-04T11:54:55.643Z,405.81
2022-12-04T11:56:35.972Z,448.57
2022-12-04T11:58:05.901Z,338.35
2022-12-04T11:59:50.272Z,340.00
2022-12-04T12:01:17.031Z,330.93
2022-12-04T12:02:47.741Z,349.05
2022-12-04T12:04:50.089Z,395.30
2022-12-04T12:06:38.079Z,499.55
2022-12-04T12:08:17.905Z,464.37
2022-12-04T12:09:59.582Z,462.84
2022-12-04T12:11:26.296Z,457.57
2022-12-04T12:13:09.447Z,418.31
2022-12-04T12:14:35.742Z,363.12
2022-12-04T12:16:00.220Z,390.83
2022-12-04T12:17:22.192Z,335.76
2022-12-04T12:19:11.531Z,321.19
2022-12-04T12:20:31.381Z,320.11
2022-12-04T12:22:00.658Z,329.66
2022-12-04T12:23:49.670Z,320.85
2022-12-04T12:25:16.432Z,328.27
2022-12-04T12:26:24.657Z,315.04
2022-12-04T12:28:00.306Z,322.91
2022-12-04T12:29:40.224Z,333.42
2022-12-04T12:31:18.745Z,338.82
2022-12-04T12:32:55.625Z,335.73
2022-12-04T12:34:19.725Z,326.93
2022-12-04T12:35:41.167Z,335.71
2022-12-04T12:37:00.891Z,329.91
2022-12-04T12:38:21.700Z,333.38
2022-12-04T12:39:43.195Z,328.66
2022-12-04T12:41:02.667Z,341.16
2022-12-04T12:42:24.572Z,330.35
2022-12-04T12:43:36.119Z,342.51
2022-12-04T12:45:03.928Z,351.19
2022-12-04T12:46:20.168Z,337.82
2022-12-04T12:47:32.765Z,333.29
2022-12-04T12:48:57.944Z,332.33
2022-12-04T12:50:24.371Z,334.51
2022-12-04T12:51:41.230Z,356.03
2022-12-04T12:53:05.695Z,339.65
2022-12-04T12:54:34.806Z,340.86
2022-12-04T12:55:50.345Z,353.63
2022-12-04T12:57:09.235Z,366.93
2022-12-04T12:58:29.561Z,368.31
2022-12-04T12:59:37.872Z,373.33
2022-12-04T13:00:53.340Z,372.30
2022-12-04T13:02:08.950Z,364.40
2022-12-04T13:03:36.516Z,362.47
2022-12-04T13:04:55.220Z,354.84
2022-12-04T13:06:18.970Z,359.94
2022-12-04T13:07:43.635Z,359.34
2022-12-04T13:09:26.641Z,360.06
2022-12-04T13:10:47.824Z,366.19
2022-12-04T13:12:19.826Z,358.12
2022-12-04T13:13:37.866Z,356.41
2022-12-04T13:14:45.914Z,350.83
2022-12-04T13:16:11.949Z,349.80
2022-12-04T13:17:44.468Z,338.96
2022-12-04T13:19:08.131Z,333.03
2022-12-04T13:20:27.793Z,318.99
2022-12-04T13:21:51.404Z,330.28
2022-12-04T13:23:26.021Z,332.46
2022-12-04T13:25:09.321Z,335.11
2022-12-04T13:26:49.005Z,347.40
2022-12-04T13:28:17.715Z,356.93
2022-12-04T13:29:57.889Z,399.01
2022-12-04T13:31:25.189Z,391.59
2022-12-04T13:33:29.990Z,384.33
2022-12-04T13:35:06.043Z,355.58
2022-12-04T13:36:52.062Z,408.15
2022-12-04T13:38:32.887Z,457.41
2022-12-04T13:40:35.112Z,531.14
2022-12-04T13:41:46.185Z,588.12
2022-12-04T13:42:50.269Z,571.02
2022-12-04T13:44:02.847Z,492.14
2022-12-04T13:45:33.550Z,514.07
2022-12-04T13:46:56.268Z,533.96
2022-12-04T13:48:06.474Z,478.95
2022-12-04T13:49:32.151Z,502.32
2022-12-04T13:50:41.091Z,489.91
2022-12-04T13:51:49.220Z,651.66
2022-12-04T13:52:55.302Z,554.69
2022-12-04T13:54:31.853Z,526.78
2022-12-04T13:55:46.085Z,519.81
2022-12-04T13:57:13.736Z,549.81
2022-12-04T13:58:35.133Z,485.89
2022-12-04T13:59:43.616Z,457.44
2022-12-04T14:01:13.380Z,444.42
2022-12-04T14:02:36.365Z,437.42
2022-12-04T14:03:55.771Z,426.60
2022-12-04T14:05:44.305Z,448.44
2022-12-04T14:06:53.838Z,515.90
2022-12-04T14:08:24.099Z,492.11
2022-12-04T14:09:53.477Z,430.97
2022-12-04T14:11:11.273Z,388.10
2022-12-04T14:12:33.156Z,353.69
2022-12-04T14:13:57.402Z,347.31
2022-12-04T14:15:29.723Z,368.95
2022-12-04T14:16:51.161Z,389.76
2022-12-04T14:18:07.955Z,390.15
2022-12-04T14:19:36.222Z,380.88
2022-12-04T14:20:45.392Z,407.78
2022-12-04T14:21:54.357Z,395.10
2022-12-04T14:23:27.804Z,388.56
2022-12-04T14:24:48.488Z,376.13
2022-12-04T14:25:58.120Z,416.12
2022-12-04T14:27:13.352Z,390.41
2022-12-04T14:28:42.326Z,388.44
2022-12-04T14:30:02.737Z,430.46
2022-12-04T14:31:32.536Z,378.92
2022-12-04T14:32:47.776Z,430.91
2022-12-04T14:34:03.562Z,436.55
2022-12-04T14:35:18.831Z,431.74
2022-12-04T14:36:51.922Z,432.20
2022-12-04T14:38:24.667Z,429.66
2022-12-04T14:39:52.813Z,418.16
2022-12-04T14:41:12.138Z,429.70
2022-12-04T14:42:41.478Z,449.93
2022-12-04T14:44:06.010Z,478.35
2022-12-04T14:45:46.931Z,451.67
2022-12-04T14:47:28.413Z,451.90
2022-12-04T14:49:04.258Z,485.85
2022-12-04T14:50:43.506Z,480.76
2022-12-04T14:52:24.753Z,525.29
2022-12-04T14:54:06.433Z,521.73
2022-12-04T14:55:52.718Z,528.38
2022-12-04T14:57:47.580Z,461.93
2022-12-04T14:59:19.990Z,430.82
2022-12-04T15:00:53.124Z,420.65
2022-12-04T15:02:24.821Z,419.64
2022-12-04T15:03:52.511Z,401.26
2022-12-04T15:05:21.897Z,405.80
2022-12-04T15:06:46.459Z,455.23
2022-12-04T15:08:09.936Z,439.47
2022-12-04T15:09:46.253Z,415.09
2022-12-04T15:11:34.486Z,418.06
2022-12-04T15:12:58.230Z,414.77
2022-12-04T15:14:19.175Z,445.62
2022-12-04T15:15:38.604Z,480.23
2022-12-04T15:17:08.688Z,460.90
2022-12-04T15:18:38.102Z,444.30
2022-12-04T15:20:14.171Z,452.91
2022-12-04T15:21:44.208Z,441.76
2022-12-04T15:23:07.833Z,436.21
2022-12-04T15:24:27.786Z,428.83
2022-12-04T15:25:54.179Z,451.83
2022-12-04T15:27:32.299Z,449.71
2022-12-04T15:29:02.916Z,410.06
2022-12-04T15:30:29.595Z,412.02
2022-12-04T15:31:58.004Z,403.64